createdAt,value
2018-09-08T00:00:20.361Z,100429.19
2018-09-08T00:02:49.124Z,100425.94
2018-09-08T00:05:18.406Z,100436.78
2018-09-08T00:07:47.391Z,100431.44
2018-09-08T00:10:17.569Z,100435.58
2018-09-08T00:12:46.976Z,100429.63
2018-09-08T00:15:20.984Z,100436.13
2018-09-08T00:17:54.839Z,100449.99
2018-09-08T00:20:28.771Z,100450.32
2018-09-08T00:23:03.515Z,100450.64
2018-09-08T00:25:37.613Z,100453.06
2018-09-08T00:28:11.173Z,100462.27
2018-09-08T00:30:40.517Z,100458.20
2018-09-08T00:33:09.927Z,100456.88
2018-09-08T00:35:39.201Z,100459.09
2018-09-08T00:38:08.341Z,100456.14
2018-09-08T00:40:37.415Z,100454.00
2018-09-08T00:43:06.339Z,100453.22
2018-09-08T00:45:35.269Z,100454.86
2018-09-08T00:48:04.139Z,100463.28
2018-09-08T00:50:32.968Z,100462.22
2018-09-08T00:53:01.726Z,100472.81
2018-09-08T00:55:30.463Z,100476.16
2018-09-08T00:58:00.431Z,100481.90
2018-09-08T01:00:29.316Z,100481.91
2018-09-08T01:02:58.201Z,100486.01
2018-09-08T01:05:26.996Z,100476.55
2018-09-08T01:07:55.879Z,100483.62
2018-09-08T01:10:26.178Z,100477.95
2018-09-08T01:12:54.910Z,100474.70
2018-09-08T01:15:23.678Z,100477.66
2018-09-08T01:17:52.603Z,100472.17
2018-09-08T01:20:21.345Z,100468.84
2018-09-08T01:22:51.131Z,100466.52
2018-09-08T01:25:20.390Z,100470.19
2018-09-08T01:27:49.989Z,100467.14
2018-09-08T01:30:19.258Z,100469.24
2018-09-08T01:32:48.083Z,100463.74
2018-09-08T01:35:17.743Z,100463.13
2018-09-08T01:37:47.568Z,100463.29
2018-09-08T01:40:16.431Z,100463.81
2018-09-08T01:42:45.251Z,100459.42
2018-09-08T01:45:14.068Z,100455.03
2018-09-08T01:47:42.951Z,100453.91
2018-09-08T01:50:11.770Z,100448.73
2018-09-08T01:52:40.584Z,100448.70
2018-09-08T01:55:09.888Z,100445.95
2018-09-08T01:57:40.490Z,100454.31
2018-09-08T02:00:10.070Z,100454.84
2018-09-08T02:02:39.296Z,100453.25
2018-09-08T02:05:08.397Z,100448.90
2018-09-08T02:07:37.599Z,100441.84
2018-09-08T02:10:07.531Z,100442.66
2018-09-08T02:12:36.957Z,100438.56
2018-09-08T02:15:06.079Z,100435.84
2018-09-08T02:17:35.548Z,100437.69
2018-09-08T02:20:04.529Z,100434.11
2018-09-08T02:22:34.372Z,100426.77
2018-09-08T02:25:04.029Z,100432.14
2018-09-08T02:27:33.652Z,100434.83
2018-09-08T02:30:02.473Z,100432.91
2018-09-08T02:32:31.336Z,100428.27
2018-09-08T02:35:00.820Z,100425.03
2018-09-08T02:37:29.602Z,100427.73
2018-09-08T02:39:58.545Z,100418.75
2018-09-08T02:42:27.428Z,100415.52
2018-09-08T02:44:56.178Z,100408.75
2018-09-08T02:47:25.186Z,100406.33
2018-09-08T02:50:30.589Z,100400.63
2018-09-08T02:52:58.211Z,100397.60
2018-09-08T02:55:25.757Z,100400.92
2018-09-08T02:57:53.759Z,100406.86
2018-09-08T03:00:21.140Z,100401.98
2018-09-08T03:02:48.543Z,100403.34
2018-09-08T03:05:16.200Z,100396.57
2018-09-08T03:07:44.043Z,100407.69
2018-09-08T03:10:12.152Z,100406.09
2018-09-08T03:12:39.573Z,100401.78
2018-09-08T03:15:07.135Z,100396.08
2018-09-08T03:17:34.549Z,100401.73
2018-09-08T03:20:02.257Z,100411.20
2018-09-08T03:22:29.831Z,100412.31
2018-09-08T03:24:57.776Z,100422.90
2018-09-08T03:27:25.868Z,100420.54
2018-09-08T03:29:53.253Z,100421.36
2018-09-08T03:32:20.661Z,100425.75
2018-09-08T03:34:48.577Z,100431.41
2018-09-08T03:37:15.980Z,100432.23
2018-09-08T03:39:43.374Z,100427.88
2018-09-08T03:42:10.817Z,100421.36
2018-09-08T03:44:38.199Z,100431.66
2018-09-08T03:47:05.739Z,100432.19
2018-09-08T03:49:33.169Z,100441.74
2018-09-08T03:52:00.535Z,100442.32
2018-09-08T03:54:27.921Z,100439.61
2018-09-08T03:56:55.355Z,100433.63
2018-09-08T03:59:23.511Z,100440.30
2018-09-08T04:01:50.901Z,100430.50
2018-09-08T04:04:19.725Z,100440.25
2018-09-08T04:06:48.610Z,100445.33
2018-09-08T04:09:18.279Z,100440.61
2018-09-08T04:11:47.384Z,100435.40
2018-09-08T04:14:16.175Z,100440.22
2018-09-08T04:16:45.033Z,100438.58
2018-09-08T04:19:13.791Z,100434.71
2018-09-08T04:21:42.722Z,100433.13
2018-09-08T04:24:12.073Z,100428.00
2018-09-08T04:26:41.458Z,100428.28
2018-09-08T04:29:10.200Z,100429.69
2018-09-08T04:31:38.947Z,100434.80
2018-09-08T04:34:08.195Z,100437.22
2018-09-08T04:36:38.119Z,100427.42
2018-09-08T04:39:09.381Z,100428.77
2018-09-08T04:41:38.467Z,100431.19
2018-09-08T04:44:07.946Z,100432.25
2018-09-08T04:46:37.733Z,100425.73
2018-09-08T04:49:07.163Z,100423.31
2018-09-08T04:51:36.014Z,100433.13
2018-09-08T04:54:05.422Z,100422.01
2018-09-08T04:56:35.604Z,100430.46
2018-09-08T04:59:05.913Z,100438.09
2018-09-08T05:01:35.355Z,100441.63
2018-09-08T05:04:04.911Z,100447.17
2018-09-08T05:06:33.776Z,100451.27
2018-09-08T05:09:03.015Z,100457.56
2018-09-08T05:11:32.916Z,100457.66
2018-09-08T05:14:01.644Z,100460.98
2018-09-08T05:16:30.388Z,100454.17
2018-09-08T05:18:59.176Z,100453.88
2018-09-08T05:21:28.655Z,100453.92
2018-09-08T05:23:58.021Z,100455.86
2018-09-08T05:26:27.360Z,100462.92
2018-09-08T05:28:56.096Z,100466.20
2018-09-08T05:31:24.869Z,100460.80
2018-09-08T05:33:53.672Z,100453.98
2018-09-08T05:36:23.066Z,100459.97
2018-09-08T05:38:51.811Z,100462.72
2018-09-08T05:41:20.635Z,100463.34
2018-09-08T05:43:49.471Z,100455.27
2018-09-08T05:46:18.254Z,100458.59
2018-09-08T05:48:47.388Z,100467.05
2018-09-08T05:51:16.226Z,100467.34
2018-09-08T05:53:45.068Z,100463.91
2018-09-08T05:56:13.849Z,100465.88
2018-09-08T05:58:43.725Z,100464.56
2018-09-08T06:01:12.477Z,100463.74
2018-09-08T06:03:41.379Z,100471.86
2018-09-08T06:06:10.151Z,100471.86
2018-09-08T06:08:39.702Z,100474.58
2018-09-08T06:11:08.891Z,100483.52
2018-09-08T06:13:37.844Z,100482.91
2018-09-08T06:16:06.851Z,100487.83
2018-09-08T06:18:36.732Z,100484.26
2018-09-08T06:21:05.722Z,100487.74
2018-09-08T06:23:35.207Z,100488.28
2018-09-08T06:26:05.435Z,100485.03
2018-09-08T06:28:35.208Z,100495.66
2018-09-08T06:31:03.953Z,100495.95
2018-09-08T06:33:32.746Z,100498.41
2018-09-08T06:36:02.001Z,100488.95
2018-09-08T06:38:30.777Z,100490.59
2018-09-08T06:40:59.566Z,100492.23
2018-09-08T06:43:28.520Z,100499.62
2018-09-08T06:45:57.299Z,100493.17
2018-09-08T06:48:26.341Z,100495.06
2018-09-08T06:50:55.194Z,100493.99
2018-09-08T06:53:23.991Z,100492.39
2018-09-08T06:55:52.780Z,100499.46
2018-09-08T06:58:21.958Z,100505.49
2018-09-08T07:00:51.364Z,100506.64
2018-09-08T07:03:20.148Z,100504.02
2018-09-08T07:05:49.154Z,100504.41
2018-09-08T07:08:19.108Z,100509.30
2018-09-08T07:10:48.705Z,100510.12
2018-09-08T07:13:17.661Z,100513.08
2018-09-08T07:15:46.924Z,100512.96
2018-09-08T07:18:15.709Z,100514.28
2018-09-08T07:20:44.529Z,100512.67
2018-09-08T07:23:13.853Z,100509.25
2018-09-08T07:25:43.204Z,100512.91
2018-09-08T07:28:11.974Z,100512.70
2018-09-08T07:30:40.727Z,100519.83
2018-09-08T07:33:09.493Z,100519.09
2018-09-08T07:35:38.950Z,100519.16
2018-09-08T07:38:07.945Z,100521.12
2018-09-08T07:40:36.891Z,100528.47
2018-09-08T07:43:05.972Z,100534.78
2018-09-08T07:45:35.389Z,100533.71
2018-09-08T07:48:04.141Z,100531.85
2018-09-08T07:50:32.963Z,100536.67
2018-09-08T07:53:01.775Z,100530.79
2018-09-08T07:55:30.538Z,100545.76
2018-09-08T07:57:59.908Z,100543.17
2018-09-08T08:00:28.747Z,100556.48
2018-09-08T08:02:57.469Z,100560.18
2018-09-08T08:05:26.258Z,100570.96
2018-09-08T08:07:55.864Z,100568.13
2018-09-08T08:10:26.879Z,100568.22
2018-09-08T08:12:56.310Z,100576.11
2018-09-08T08:15:25.923Z,100581.31
2018-09-08T08:17:54.672Z,100573.38
2018-09-08T08:20:23.459Z,100578.51
2018-09-08T08:22:52.727Z,100581.75
2018-09-08T08:25:22.392Z,100579.61
2018-09-08T08:27:51.780Z,100580.81
2018-09-08T08:30:20.556Z,100583.16
2018-09-08T08:32:49.704Z,100592.82
2018-09-08T08:35:20.282Z,100592.39
2018-09-08T08:37:49.044Z,100584.78
2018-09-08T08:40:17.835Z,100588.05
2018-09-08T08:42:46.695Z,100591.95
2018-09-08T08:45:15.459Z,100602.30
2018-09-08T08:47:44.367Z,100586.69
2018-09-08T08:50:24.184Z,100587.80
2018-09-08T08:53:03.961Z,100578.44
2018-09-08T08:55:32.757Z,100584.05
2018-09-08T08:58:02.417Z,100585.87
2018-09-08T09:00:31.208Z,100591.58
2018-09-08T09:02:59.926Z,100597.30
2018-09-08T09:05:28.709Z,100599.31
2018-09-08T09:07:58.341Z,100595.53
2018-09-08T09:10:27.802Z,100597.30
2018-09-08T09:12:56.856Z,100601.50
2018-09-08T09:15:26.023Z,100602.69
2018-09-08T09:17:54.544Z,100608.20
2018-09-08T09:20:35.480Z,100605.61
2018-09-08T09:23:14.349Z,100610.42
2018-09-08T09:25:43.666Z,100612.02
2018-09-08T09:28:12.428Z,100616.02
2018-09-08T09:30:41.193Z,100617.61
2018-09-08T09:33:10.057Z,100617.69
2018-09-08T09:35:39.451Z,100619.30
2018-09-08T09:38:08.319Z,100618.19
2018-09-08T09:40:37.341Z,100622.05
2018-09-08T09:43:06.570Z,100624.59
2018-09-08T09:45:36.028Z,100629.53
2018-09-08T09:48:04.851Z,100632.53
2018-09-08T09:50:33.628Z,100632.28
2018-09-08T09:53:02.590Z,100632.03
2018-09-08T09:55:31.320Z,100635.81
2018-09-08T09:58:01.448Z,100635.36
2018-09-08T10:00:35.795Z,100640.77
2018-09-08T10:03:07.927Z,100639.98
2018-09-08T10:05:37.805Z,100645.36
2018-09-08T10:08:07.444Z,100642.27
2018-09-08T10:10:36.995Z,100636.13
2018-09-08T10:13:06.300Z,100641.77
2018-09-08T10:15:35.631Z,100636.30
2018-09-08T10:18:04.561Z,100633.47
2018-09-08T10:20:33.380Z,100634.43
2018-09-08T10:23:03.110Z,100631.22
2018-09-08T10:25:32.412Z,100631.25
2018-09-08T10:28:01.717Z,100627.13
2018-09-08T10:30:30.656Z,100635.30
2018-09-08T10:32:59.503Z,100634.53
2018-09-08T10:35:28.955Z,100633.47
2018-09-08T10:37:57.721Z,100627.73
2018-09-08T10:40:26.540Z,100629.35
2018-09-08T10:42:55.332Z,100629.30
2018-09-08T10:45:24.135Z,100636.63
2018-09-08T10:47:53.007Z,100632.38
2018-09-08T10:50:22.156Z,100633.27
2018-09-08T10:52:51.047Z,100631.34
2018-09-08T10:55:20.040Z,100630.80
2018-09-08T10:57:49.795Z,100638.69
2018-09-08T11:00:18.608Z,100635.67
2018-09-08T11:02:47.802Z,100632.35
2018-09-08T11:05:17.649Z,100646.98
2018-09-08T11:07:47.556Z,100640.16
2018-09-08T11:10:16.858Z,100636.39
2018-09-08T11:12:45.659Z,100639.38
2018-09-08T11:15:14.404Z,100640.66
2018-09-08T11:17:43.225Z,100638.39
2018-09-08T11:20:11.963Z,100639.98
2018-09-08T11:22:42.199Z,100635.19
2018-09-08T11:25:11.829Z,100637.08
2018-09-08T11:27:40.585Z,100634.08
2018-09-08T11:30:09.521Z,100640.34
2018-09-08T11:32:38.312Z,100636.66
2018-09-08T11:35:07.979Z,100638.66
2018-09-08T11:37:37.310Z,100640.02
2018-09-08T11:40:06.397Z,100639.81
2018-09-08T11:42:35.571Z,100641.47
2018-09-08T11:45:04.434Z,100641.73
2018-09-08T11:47:33.787Z,100632.45
2018-09-08T11:50:02.545Z,100639.86
2018-09-08T11:52:31.332Z,100640.94
2018-09-08T11:55:00.127Z,100645.85
2018-09-08T11:57:29.873Z,100646.69
2018-09-08T11:59:58.598Z,100636.86
2018-09-08T12:02:27.311Z,100648.30
2018-09-08T12:04:56.740Z,100646.64
2018-09-08T12:07:25.476Z,100642.53
2018-09-08T12:09:54.827Z,100642.23
2018-09-08T12:12:23.564Z,100653.42
2018-09-08T12:14:52.345Z,100652.02
2018-09-08T12:17:21.104Z,100647.67
2018-09-08T12:19:49.963Z,100652.05
2018-09-08T12:22:18.998Z,100650.14
2018-09-08T12:24:48.592Z,100647.70
2018-09-08T12:27:17.670Z,100648.49
2018-09-08T12:29:46.475Z,100646.86
2018-09-08T12:32:15.231Z,100656.91
2018-09-08T12:34:44.739Z,100657.19
2018-09-08T12:37:13.568Z,100662.05
2018-09-08T12:39:42.321Z,100664.51
2018-09-08T12:42:11.140Z,100669.13
2018-09-08T12:44:39.944Z,100669.95
2018-09-08T12:47:08.785Z,100672.95
2018-09-08T12:49:37.924Z,100668.56
2018-09-08T12:52:06.856Z,100669.31
2018-09-08T12:54:35.741Z,100671.75
2018-09-08T12:57:06.504Z,100674.21
2018-09-08T12:59:36.052Z,100677.48
2018-09-08T13:02:05.963Z,100678.61
2018-09-08T13:04:35.048Z,100678.89
2018-09-08T13:07:03.800Z,100681.37
2018-09-08T13:09:33.490Z,100686.56
2018-09-08T13:12:02.248Z,100688.71
2018-09-08T13:14:31.047Z,100700.92
2018-09-08T13:16:59.909Z,100695.72
2018-09-08T13:19:28.825Z,100695.42
2018-09-08T13:21:57.709Z,100701.66
2018-09-08T13:24:27.186Z,100707.63
2018-09-08T13:26:55.948Z,100710.34
2018-09-08T13:29:24.724Z,100707.03
2018-09-08T13:31:53.555Z,100717.86
2018-09-08T13:34:22.389Z,100708.27
2018-09-08T13:36:51.580Z,100716.42
2018-09-08T13:39:20.334Z,100714.26
2018-09-08T13:41:49.284Z,100707.45
2018-09-08T13:44:18.252Z,100713.97
2018-09-08T13:46:47.109Z,100715.61
2018-09-08T13:49:15.988Z,100718.05
2018-09-08T13:51:44.743Z,100714.47
2018-09-08T13:54:13.523Z,100716.53
2018-09-08T13:56:42.307Z,100718.02
2018-09-08T13:59:11.832Z,100722.31
2018-09-08T14:01:40.611Z,100724.02
2018-09-08T14:04:09.463Z,100717.53
2018-09-08T14:06:39.439Z,100722.73
2018-09-08T14:09:08.806Z,100726.30
2018-09-08T14:11:38.081Z,100730.20
2018-09-08T14:14:07.105Z,100729.70
2018-09-08T14:16:36.850Z,100739.02
2018-09-08T14:19:06.084Z,100737.45
2018-09-08T14:21:34.987Z,100729.31
2018-09-08T14:24:04.637Z,100736.92
2018-09-08T14:26:33.415Z,100734.50
2018-09-08T14:29:02.177Z,100731.01
2018-09-08T14:31:31.031Z,100727.98
2018-09-08T14:33:59.775Z,100733.67
2018-09-08T14:36:29.203Z,100739.06
2018-09-08T14:38:57.928Z,100739.86
2018-09-08T14:41:26.704Z,100724.59
2018-09-08T14:43:55.543Z,100739.56
2018-09-08T14:46:25.274Z,100739.60
2018-09-08T14:48:54.139Z,100751.63
2018-09-08T14:51:22.968Z,100749.21
2018-09-08T14:53:51.722Z,100745.11
2018-09-08T14:56:21.685Z,100745.36
2018-09-08T14:58:51.033Z,100749.41
2018-09-08T15:01:20.043Z,100744.17
2018-09-08T15:03:48.866Z,100741.16
2018-09-08T15:06:17.894Z,100747.88
2018-09-08T15:08:47.371Z,100751.39
2018-09-08T15:11:16.946Z,100747.83
2018-09-08T15:13:45.746Z,100757.85
2018-09-08T15:16:14.523Z,100754.55
2018-09-08T15:18:44.012Z,100755.08
2018-09-08T15:21:12.803Z,100758.28
2018-09-08T15:23:42.160Z,100762.33
2018-09-08T15:26:10.957Z,100764.42
2018-09-08T15:28:39.692Z,100767.70
2018-09-08T15:31:08.513Z,100769.34
2018-09-08T15:33:37.498Z,100768.30
2018-09-08T15:36:08.260Z,100764.23
2018-09-08T15:38:37.131Z,100761.45
2018-09-08T15:41:06.107Z,100758.92
2018-09-08T15:43:34.983Z,100761.89
2018-09-08T15:46:04.711Z,100768.12
2018-09-08T15:48:33.470Z,100771.69
2018-09-08T15:51:02.207Z,100778.20
2018-09-08T15:53:30.988Z,100773.99
2018-09-08T15:55:59.937Z,100785.25
2018-09-08T15:58:29.484Z,100785.94
2018-09-08T16:00:58.264Z,100789.43
2018-09-08T16:03:27.001Z,100789.64
2018-09-08T16:05:55.759Z,100794.61
2018-09-08T16:08:25.201Z,100786.53
2018-09-08T16:10:54.990Z,100789.37
2018-09-08T16:13:23.715Z,100794.47
2018-09-08T16:15:52.437Z,100793.16
2018-09-08T16:18:21.947Z,100794.25
2018-09-08T16:20:50.711Z,100788.17
2018-09-08T16:23:20.804Z,100781.16
2018-09-08T16:25:50.135Z,100783.66
2018-09-08T16:28:18.966Z,100791.84
2018-09-08T16:30:47.762Z,100783.13
2018-09-08T16:33:16.553Z,100791.28
2018-09-08T16:35:46.213Z,100791.82
2018-09-08T16:38:15.009Z,100792.86
2018-09-08T16:40:43.734Z,100792.08
2018-09-08T16:43:12.818Z,100796.45
2018-09-08T16:45:41.595Z,100795.89
2018-09-08T16:48:10.473Z,100799.16
2018-09-08T16:50:39.228Z,100801.92
2018-09-08T16:53:08.706Z,100802.73
2018-09-08T16:55:38.247Z,100807.60
2018-09-08T16:58:08.453Z,100809.87
2018-09-08T17:00:37.463Z,100820.30
2018-09-08T17:03:06.071Z,100814.00
2018-09-08T17:05:34.980Z,100822.66
2018-09-08T17:08:04.254Z,100818.20
2018-09-08T17:10:33.737Z,100820.90
2018-09-08T17:13:02.499Z,100823.59
2018-09-08T17:15:31.233Z,100824.94
2018-09-08T17:18:00.438Z,100821.07
2018-09-08T17:20:29.161Z,100825.38
2018-09-08T17:22:58.788Z,100823.94
2018-09-08T17:25:27.924Z,100835.52
2018-09-08T17:27:56.671Z,100834.92
2018-09-08T17:30:25.487Z,100839.47
2018-09-08T17:32:54.833Z,100836.50
2018-09-08T17:35:24.850Z,100841.69
2018-09-08T17:37:53.596Z,100845.73
2018-09-08T17:40:22.358Z,100850.66
2018-09-08T17:42:51.165Z,100857.74
2018-09-08T17:45:20.320Z,100863.23
2018-09-08T17:47:49.514Z,100866.48
2018-09-08T17:50:18.400Z,100870.25
2018-09-08T17:52:48.109Z,100868.05
2018-09-08T17:55:17.140Z,100874.73
2018-09-08T17:57:46.430Z,100881.70
2018-09-08T18:00:15.273Z,100886.08
2018-09-08T18:02:44.130Z,100895.36
2018-09-08T18:05:13.035Z,100891.05
2018-09-08T18:07:41.735Z,100897.36
2018-09-08T18:10:11.320Z,100898.03
2018-09-08T18:12:40.074Z,100896.23
2018-09-08T18:15:09.547Z,100895.27
2018-09-08T18:17:39.192Z,100896.20
2018-09-08T18:20:08.503Z,100898.37
2018-09-08T18:22:38.238Z,100902.74
2018-09-08T18:25:08.446Z,100903.33
2018-09-08T18:27:37.759Z,100905.16
2018-09-08T18:30:07.614Z,100915.58
2018-09-08T18:32:37.797Z,100914.30
2018-09-08T18:35:09.017Z,100913.26
2018-09-08T18:37:39.172Z,100918.19
2018-09-08T18:40:09.035Z,100922.02
2018-09-08T18:42:38.003Z,100925.86
2018-09-08T18:45:07.661Z,100929.81
2018-09-08T18:47:36.615Z,100926.95
2018-09-08T18:50:07.179Z,100930.34
2018-09-08T18:52:36.181Z,100931.81
2018-09-08T18:55:05.681Z,100940.56
2018-09-08T18:57:36.299Z,100939.59
2018-09-08T19:00:05.858Z,100936.70
2018-09-08T19:02:34.675Z,100941.17
2018-09-08T19:05:05.124Z,100935.17
2018-09-08T19:07:33.976Z,100944.61
2018-09-08T19:10:05.631Z,100946.42
2018-09-08T19:12:36.523Z,100949.34
2018-09-08T19:15:10.574Z,100949.55
2018-09-08T19:17:40.619Z,100953.20
2018-09-08T19:20:14.714Z,100959.85
2018-09-08T19:22:43.976Z,100956.80
2018-09-08T19:25:13.385Z,100960.13
2018-09-08T19:27:42.132Z,100963.17
2018-09-08T19:30:11.738Z,100959.19
2018-09-08T19:32:40.544Z,100966.05
2018-09-08T19:35:15.148Z,100962.37
2018-09-08T19:37:43.943Z,100965.49
2018-09-08T19:40:17.835Z,100966.23
2018-09-08T19:42:46.643Z,100969.34
2018-09-08T19:45:15.853Z,100979.72
2018-09-08T19:47:50.482Z,100984.53
2018-09-08T19:50:19.439Z,100979.98
2018-09-08T19:52:53.461Z,100977.41
2018-09-08T19:55:22.323Z,100980.46
2018-09-08T19:57:57.939Z,100977.67
2018-09-08T20:00:26.708Z,100987.30
2018-09-08T20:02:55.475Z,100988.34
2018-09-08T20:05:24.362Z,100991.56
2018-09-08T20:07:54.098Z,100986.90
2018-09-08T20:10:23.559Z,100983.90
2018-09-08T20:12:52.358Z,100992.29
2018-09-08T20:15:21.187Z,100991.98
2018-09-08T20:17:51.252Z,100995.71
2018-09-08T20:20:20.066Z,100998.95
2018-09-08T20:22:50.866Z,100997.52
2018-09-08T20:25:21.031Z,101003.72
2018-09-08T20:27:49.833Z,100999.69
2018-09-08T20:30:18.674Z,101005.38
2018-09-08T20:32:48.048Z,101010.25
2018-09-08T20:35:17.496Z,101015.39
2018-09-08T20:37:47.317Z,101012.84
2018-09-08T20:40:16.106Z,101008.60
2018-09-08T20:42:44.835Z,101020.41
2018-09-08T20:45:14.964Z,101023.00
2018-09-08T20:47:43.806Z,101015.96
2018-09-08T20:50:12.549Z,101021.86
2018-09-08T20:52:41.338Z,101026.45
2018-09-08T20:55:10.119Z,101029.53
2018-09-08T20:57:39.666Z,101027.66
2018-09-08T21:00:08.604Z,101030.66
2018-09-08T21:02:37.597Z,101042.37
2018-09-08T21:05:06.882Z,101035.12
2018-09-08T21:07:36.142Z,101037.91
2018-09-08T21:10:05.746Z,101038.80
2018-09-08T21:12:34.598Z,101035.08
2018-09-08T21:15:03.759Z,101032.69
2018-09-08T21:17:33.253Z,101038.80
2018-09-08T21:20:02.067Z,101039.56
2018-09-08T21:22:31.696Z,101045.47
2018-09-08T21:25:00.980Z,101040.30
2018-09-08T21:27:29.656Z,101044.75
2018-09-08T21:29:58.474Z,101040.61
2018-09-08T21:32:27.255Z,101042.16
2018-09-08T21:34:57.564Z,101038.78
2018-09-08T21:37:26.420Z,101041.89
2018-09-08T21:39:55.153Z,101050.38
2018-09-08T21:42:24.699Z,101042.38
2018-09-08T21:44:53.458Z,101036.61
2018-09-08T21:47:22.168Z,101041.99
2018-09-08T21:49:50.942Z,101043.34
2018-09-08T21:52:19.944Z,101045.00
2018-09-08T21:54:49.215Z,101042.20
2018-09-08T21:57:18.885Z,101048.52
2018-09-08T21:59:47.615Z,101042.41
2018-09-08T22:02:16.466Z,101039.30
2018-09-08T22:04:45.395Z,101040.20
2018-09-08T22:07:14.168Z,101034.09
2018-09-08T22:09:43.620Z,101031.80
2018-09-08T22:12:12.653Z,101035.63
2018-09-08T22:14:41.916Z,101038.84
2018-09-08T22:17:10.807Z,101045.58
2018-09-08T22:19:40.190Z,101040.81
2018-09-08T22:22:09.199Z,101036.25
2018-09-08T22:24:38.681Z,101031.17
2018-09-08T22:27:09.020Z,101044.44
2018-09-08T22:29:38.414Z,101039.12
2018-09-08T22:32:07.570Z,101040.25
2018-09-08T22:34:37.942Z,101040.25
2018-09-08T22:37:07.437Z,101045.44
2018-09-08T22:39:36.912Z,101038.70
2018-09-08T22:42:05.915Z,101045.74
2018-09-08T22:44:34.694Z,101044.91
2018-09-08T22:47:03.471Z,101044.09
2018-09-08T22:49:32.203Z,101042.84
2018-09-08T22:52:01.087Z,101050.72
2018-09-08T22:54:29.912Z,101050.93
2018-09-08T22:56:58.739Z,101052.41
2018-09-08T22:59:28.271Z,101039.67
2018-09-08T23:01:57.068Z,101050.14
2018-09-08T23:04:25.803Z,101054.70
2018-09-08T23:06:54.567Z,101060.59
2018-09-08T23:09:24.394Z,101062.67
2018-09-08T23:11:53.771Z,101054.49
2018-09-08T23:14:22.619Z,101063.61
2018-09-08T23:16:51.359Z,101065.92
2018-09-08T23:19:20.537Z,101069.12
2018-09-08T23:21:49.459Z,101070.99
2018-09-08T23:24:19.047Z,101062.91
2018-09-08T23:26:48.298Z,101064.57
2018-09-08T23:29:17.909Z,101067.98
2018-09-08T23:31:46.807Z,101065.09
2018-09-08T23:34:15.594Z,101065.70
2018-09-08T23:36:45.326Z,101064.88
2018-09-08T23:39:14.292Z,101068.09
2018-09-08T23:41:43.028Z,101061.88
2018-09-08T23:44:11.911Z,101067.78
2018-09-08T23:46:40.686Z,101070.37
2018-09-08T23:49:09.546Z,101076.27
2018-09-08T23:51:38.386Z,101071.92
2018-09-08T23:54:22.495Z,101069.44
2018-09-08T23:56:51.302Z,101072.13
2018-09-08T23:59:21.321Z,101075.55
